Time;durP1;ratioP1;P1;durP2;ratioP2;P2;SDS_P1;SDS_P2;PMS_P1;PMS_P2;Temp;Humidity;BMP_temperature;BMP_pressure;BME280_temperature;BME280_humidity;BME280_pressure;Samples;Min_cycle;Max_cycle;Signal;HPM_P1;HPM_P2
2023/12/09 00:00:35;;;;;;;14.60;9.40;;;5.40;65.80;;;;;;4946702;28;20097;-75
2023/12/09 00:03:01;;;;;;;13.32;9.32;;;5.40;65.80;;;;;;4948384;29;20035;-75
2023/12/09 00:05:27;;;;;;;12.43;8.15;;;5.40;65.80;;;;;;4948460;29;20513;-75
2023/12/09 00:07:53;;;;;;;15.02;8.60;;;5.40;65.70;;;;;;4947692;29;20035;-75
2023/12/09 00:10:19;;;;;;;15.07;9.38;;;5.40;65.70;;;;;;4947795;29;20050;-75
2023/12/09 00:12:48;;;;;;;14.23;9.32;;;5.40;65.70;;;;;;4948252;28;20046;-77
2023/12/09 00:15:14;;;;;;;13.45;9.10;;;5.40;65.70;;;;;;4947956;29;20518;-77
2023/12/09 00:17:40;;;;;;;16.73;9.10;;;5.40;65.90;;;;;;4948386;29;20027;-78
2023/12/09 00:20:07;;;;;;;12.45;8.70;;;5.40;66.10;;;;;;4948049;28;20142;-77
2023/12/09 00:22:33;;;;;;;12.85;8.98;;;5.40;66.30;;;;;;4947922;29;20027;-76
2023/12/09 00:24:59;;;;;;;14.95;9.02;;;5.40;66.20;;;;;;4948012;29;20143;-76
2023/12/09 00:27:26;;;;;;;13.15;9.02;;;5.30;66.10;;;;;;4946383;29;20921;-76
2023/12/09 00:29:52;;;;;;;13.75;9.18;;;5.30;66.30;;;;;;4949432;29;20054;-77
2023/12/09 00:32:18;;;;;;;11.50;8.27;;;5.30;66.20;;;;;;4953463;29;20043;-77
2023/12/09 00:34:44;;;;;;;14.07;9.45;;;5.40;66.10;;;;;;4957644;29;20079;-77
2023/12/09 00:37:10;;;;;;;14.93;9.75;;;5.30;66.10;;;;;;4949019;29;20061;-77
2023/12/09 00:39:37;;;;;;;14.07;8.88;;;5.40;66.10;;;;;;4948217;29;20047;-77
2023/12/09 00:42:03;;;;;;;14.73;9.20;;;5.30;66.10;;;;;;4947741;29;20375;-74
2023/12/09 00:44:29;;;;;;;13.98;8.88;;;5.30;66.20;;;;;;4930340;29;20031;-75
2023/12/09 00:46:55;;;;;;;14.93;9.52;;;5.40;66.40;;;;;;4943573;29;20043;-74
2023/12/09 00:49:21;;;;;;;14.27;9.25;;;5.40;66.40;;;;;;4948351;29;20039;-74
2023/12/09 00:51:47;;;;;;;14.13;9.48;;;5.40;66.30;;;;;;4946892;29;20130;-74
2023/12/09 00:54:13;;;;;;;13.60;9.43;;;5.40;66.40;;;;;;4947664;29;20035;-75
2023/12/09 00:56:39;;;;;;;14.30;9.30;;;5.30;66.30;;;;;;4947260;28;20045;-75
2023/12/09 00:59:05;;;;;;;15.93;9.57;;;5.40;66.30;;;;;;4948053;29;20101;-75
2023/12/09 01:01:33;;;;;;;14.75;9.70;;;5.40;66.20;;;;;;4947239;29;20062;-75
2023/12/09 01:04:00;;;;;;;13.73;8.85;;;5.40;66.20;;;;;;4947130;29;20118;-75
2023/12/09 01:06:28;;;;;;;14.55;9.10;;;5.40;66.20;;;;;;4946767;29;20039;-75
2023/12/09 01:08:55;;;;;;;12.48;8.85;;;5.40;66.30;;;;;;4948240;29;20090;-75
2023/12/09 01:11:21;;;;;;;12.73;8.90;;;5.40;66.30;;;;;;4947822;29;20122;-73
2023/12/09 01:13:47;;;;;;;13.48;9.23;;;5.30;66.30;;;;;;4947079;29;20089;-74
2023/12/09 01:16:13;;;;;;;14.80;9.80;;;5.30;66.20;;;;;;4946669;29;20063;-75
2023/12/09 01:18:39;;;;;;;13.40;9.15;;;5.30;66.40;;;;;;4946929;29;20047;-75
2023/12/09 01:21:05;;;;;;;15.10;9.55;;;5.30;66.20;;;;;;4947171;29;20599;-75
2023/12/09 01:23:31;;;;;;;13.13;8.38;;;5.30;66.10;;;;;;4929309;29;20059;-74
2023/12/09 01:25:57;;;;;;;16.25;9.70;;;5.30;66.10;;;;;;4949751;28;20063;-74
2023/12/09 01:28:23;;;;;;;14.98;9.25;;;5.30;66.30;;;;;;4951663;29;20036;-74
2023/12/09 01:30:49;;;;;;;15.27;9.65;;;5.30;66.30;;;;;;4950110;29;20035;-76
2023/12/09 01:33:15;;;;;;;15.20;9.40;;;5.30;66.40;;;;;;4950904;29;20438;-75
2023/12/09 01:35:41;;;;;;;13.40;8.63;;;5.30;66.50;;;;;;4943043;29;20102;-74
2023/12/09 01:38:08;;;;;;;13.60;9.38;;;5.20;66.40;;;;;;4950502;29;20512;-74
2023/12/09 01:40:33;;;;;;;12.70;8.77;;;5.30;66.40;;;;;;4950885;29;20127;-75
2023/12/09 01:42:59;;;;;;;13.13;9.30;;;5.20;66.50;;;;;;4950764;29;20129;-75
2023/12/09 01:45:25;;;;;;;14.00;8.82;;;5.20;66.70;;;;;;4950050;29;20555;-75
2023/12/09 01:47:51;;;;;;;13.95;8.68;;;5.20;66.90;;;;;;4950651;29;20027;-75
2023/12/09 01:50:18;;;;;;;13.43;8.80;;;5.20;66.90;;;;;;4951085;29;20039;-75
2023/12/09 01:52:46;;;;;;;15.45;9.20;;;5.20;66.80;;;;;;4951345;28;20059;-75
2023/12/09 01:55:13;;;;;;;12.48;8.73;;;5.20;66.80;;;;;;4950962;29;20040;-76
2023/12/09 01:57:39;;;;;;;12.60;8.40;;;5.30;66.90;;;;;;4950309;29;20393;-75
2023/12/09 02:00:07;;;;;;;12.05;7.82;;;5.20;66.80;;;;;;4953217;29;20039;-77
2023/12/09 02:02:33;;;;;;;12.35;8.20;;;5.30;66.90;;;;;;4957112;29;20394;-77
2023/12/09 02:05:00;;;;;;;12.15;8.30;;;5.30;66.90;;;;;;4954245;29;20590;-75
2023/12/09 02:07:26;;;;;;;13.52;8.82;;;5.30;67.00;;;;;;4951123;29;20142;-75
2023/12/09 02:09:52;;;;;;;13.30;8.45;;;5.30;67.10;;;;;;4940374;29;20487;-75
2023/12/09 02:12:45;;;;;;;12.68;8.85;;;5.30;67.30;;;;;;4950290;29;20055;-77
2023/12/09 02:15:24;;;;;;;15.05;8.40;;;5.30;67.10;;;;;;4950500;29;20442;-77
2023/12/09 02:18:00;;;;;;;13.20;7.80;;;5.30;67.10;;;;;;4950911;29;20035;-78
2023/12/09 02:20:29;;;;;;;13.20;8.77;;;5.30;67.40;;;;;;4942460;29;20510;-78
2023/12/09 02:23:05;;;;;;;13.05;8.80;;;5.30;67.30;;;;;;4950109;29;20039;-78
2023/12/09 02:25:32;;;;;;;13.63;8.20;;;5.30;67.40;;;;;;4950285;29;20530;-77
2023/12/09 02:28:04;;;;;;;13.80;8.55;;;5.20;67.60;;;;;;4950590;29;20490;-77
2023/12/09 02:30:53;;;;;;;12.95;8.90;;;5.30;67.80;;;;;;4950471;29;20490;-76
2023/12/09 02:33:22;;;;;;;12.90;7.47;;;5.30;67.70;;;;;;4950304;29;20043;-77
2023/12/09 02:35:50;;;;;;;10.70;7.85;;;5.30;67.80;;;;;;4950364;28;20592;-77
2023/12/09 02:38:18;;;;;;;13.40;8.18;;;5.30;67.70;;;;;;4947841;29;20047;-77
2023/12/09 02:40:46;;;;;;;13.55;8.27;;;5.20;67.80;;;;;;4949448;29;20031;-77
2023/12/09 02:43:13;;;;;;;13.57;8.32;;;5.20;67.80;;;;;;4941116;29;20039;-77
2023/12/09 02:45:39;;;;;;;12.05;7.93;;;5.20;67.70;;;;;;4950532;29;20038;-77
2023/12/09 02:48:05;;;;;;;12.27;8.05;;;5.20;67.70;;;;;;4949764;29;20453;-77
2023/12/09 02:50:31;;;;;;;12.23;8.43;;;5.20;67.80;;;;;;4950561;28;20035;-77
2023/12/09 02:52:57;;;;;;;11.13;7.97;;;5.20;67.80;;;;;;4950183;29;20129;-76
2023/12/09 02:55:24;;;;;;;12.43;7.50;;;5.20;67.90;;;;;;4949629;29;20126;-76
2023/12/09 02:57:50;;;;;;;11.77;7.43;;;5.20;67.90;;;;;;4949979;29;20039;-76
2023/12/09 03:00:16;;;;;;;13.85;7.95;;;5.20;68.00;;;;;;4950079;29;20150;-78
2023/12/09 03:02:42;;;;;;;11.63;7.72;;;5.20;68.10;;;;;;4948481;29;20031;-75
2023/12/09 03:05:08;;;;;;;14.98;8.07;;;5.20;68.40;;;;;;4949111;29;20487;-74
2023/12/09 03:07:34;;;;;;;12.65;8.18;;;5.20;68.50;;;;;;4949727;29;20039;-74
2023/12/09 03:10:00;;;;;;;12.43;7.90;;;5.20;68.60;;;;;;4949572;29;20070;-75
2023/12/09 03:12:26;;;;;;;15.10;8.18;;;5.20;68.80;;;;;;4948570;29;20051;-75
2023/12/09 03:14:53;;;;;;;12.55;8.00;;;5.20;69.00;;;;;;4949966;29;20442;-75
2023/12/09 03:17:19;;;;;;;12.52;7.97;;;5.20;69.00;;;;;;4949504;29;20044;-75
2023/12/09 03:19:45;;;;;;;10.85;7.30;;;5.20;69.20;;;;;;4948514;29;20051;-75
2023/12/09 03:22:11;;;;;;;14.43;8.23;;;5.20;69.30;;;;;;4949681;29;20043;-75
2023/12/09 03:24:37;;;;;;;12.13;8.13;;;5.20;69.60;;;;;;4949490;29;20047;-75
2023/12/09 03:27:03;;;;;;;15.07;8.90;;;5.20;69.80;;;;;;4948793;29;20543;-78
2023/12/09 03:29:29;;;;;;;12.00;7.60;;;5.20;69.60;;;;;;4948592;29;20031;-77
2023/12/09 03:31:55;;;;;;;11.65;8.23;;;5.30;69.80;;;;;;4961074;29;20047;-76
2023/12/09 03:34:21;;;;;;;12.25;7.78;;;5.30;69.80;;;;;;4950257;29;20042;-77
2023/12/09 03:36:47;;;;;;;11.35;7.45;;;5.30;69.90;;;;;;4948854;29;20035;-76
2023/12/09 03:39:13;;;;;;;11.95;7.55;;;5.30;70.00;;;;;;4949057;29;20380;-76
2023/12/09 03:41:39;;;;;;;11.60;7.85;;;5.30;70.00;;;;;;4949835;29;20037;-77
2023/12/09 03:44:05;;;;;;;11.80;8.00;;;5.30;70.00;;;;;;4948777;29;20035;-75
2023/12/09 03:46:31;;;;;;;12.07;8.35;;;5.20;69.90;;;;;;4948275;28;20063;-77
2023/12/09 03:48:57;;;;;;;11.57;7.78;;;5.20;70.00;;;;;;4939351;28;20031;-76
2023/12/09 03:51:23;;;;;;;12.48;8.40;;;5.20;70.10;;;;;;4947935;29;20042;-79
2023/12/09 03:53:49;;;;;;;11.52;7.47;;;5.20;70.20;;;;;;4949172;29;20027;-77
2023/12/09 03:56:26;;;;;;;10.02;6.97;;;5.20;70.30;;;;;;4948121;29;20035;-75
2023/12/09 03:58:53;;;;;;;11.82;7.85;;;5.20;70.20;;;;;;4948279;29;20109;-75
2023/12/09 04:01:22;;;;;;;12.05;7.70;;;5.20;70.30;;;;;;4948498;29;20054;-76
2023/12/09 04:03:48;;;;;;;11.43;8.20;;;5.20;70.30;;;;;;4947957;29;20037;-76
2023/12/09 04:06:14;;;;;;;13.05;8.75;;;5.20;70.30;;;;;;4947712;29;20394;-75
2023/12/09 04:08:40;;;;;;;15.35;8.13;;;5.20;70.50;;;;;;4949294;29;20122;-77
2023/12/09 04:11:06;;;;;;;13.70;8.43;;;5.20;70.40;;;;;;4946664;29;20055;-74
2023/12/09 04:13:32;;;;;;;13.25;8.15;;;5.20;70.50;;;;;;4948442;29;20031;-77
2023/12/09 04:15:59;;;;;;;14.05;8.50;;;5.20;70.40;;;;;;4938025;29;20083;-77
2023/12/09 04:18:25;;;;;;;10.30;7.22;;;5.20;70.40;;;;;;4947311;29;20075;-77
2023/12/09 04:20:52;;;;;;;11.32;7.97;;;5.20;70.50;;;;;;4949112;29;20034;-76
2023/12/09 04:23:18;;;;;;;13.50;8.10;;;5.10;70.50;;;;;;4939842;29;20533;-77
2023/12/09 04:25:44;;;;;;;12.30;7.70;;;5.20;70.60;;;;;;4947825;29;20513;-77
2023/12/09 04:28:13;;;;;;;12.65;7.93;;;5.20;70.60;;;;;;4948297;29;20072;-77
2023/12/09 04:30:39;;;;;;;11.50;7.18;;;5.10;70.50;;;;;;4947908;29;20059;-78
2023/12/09 04:33:05;;;;;;;11.80;7.63;;;5.20;70.80;;;;;;4948263;29;20035;-77
2023/12/09 04:35:31;;;;;;;10.95;7.53;;;5.20;71.10;;;;;;4948572;29;20038;-77
2023/12/09 04:37:57;;;;;;;11.07;7.18;;;5.10;71.00;;;;;;4946626;29;20036;-76
2023/12/09 04:40:23;;;;;;;11.70;7.95;;;5.20;71.10;;;;;;4947813;29;20036;-76
2023/12/09 04:42:49;;;;;;;12.57;8.05;;;5.20;71.20;;;;;;4947958;28;20038;-77
2023/12/09 04:45:15;;;;;;;10.98;7.40;;;5.20;71.20;;;;;;4947113;29;20050;-77
2023/12/09 04:47:41;;;;;;;12.18;7.68;;;5.20;71.20;;;;;;4914900;29;20031;-77
2023/12/09 04:50:10;;;;;;;11.95;7.38;;;5.20;71.20;;;;;;4930400;29;20564;-75
2023/12/09 04:52:37;;;;;;;11.27;7.55;;;5.20;71.30;;;;;;4947812;29;20155;-76
2023/12/09 04:55:03;;;;;;;12.85;8.52;;;5.10;71.30;;;;;;4947942;29;21420;-76
2023/12/09 04:57:31;;;;;;;11.18;7.38;;;5.10;71.40;;;;;;4948467;29;20032;-76
2023/12/09 04:59:57;;;;;;;10.38;7.43;;;5.20;71.60;;;;;;4916275;29;20529;-76
2023/12/09 05:02:23;;;;;;;13.60;8.07;;;5.20;71.60;;;;;;4930663;29;20043;-76
2023/12/09 05:04:49;;;;;;;11.02;7.47;;;5.20;71.60;;;;;;4930473;29;20035;-76
2023/12/09 05:07:15;;;;;;;12.15;7.13;;;5.20;72.40;;;;;;4927949;29;20042;-77
2023/12/09 05:09:41;;;;;;;10.45;7.32;;;5.10;71.50;;;;;;4930659;29;20541;-77
2023/12/09 05:12:07;;;;;;;11.00;8.00;;;5.10;71.50;;;;;;4929181;29;20504;-77
2023/12/09 05:14:33;;;;;;;10.68;7.32;;;5.20;71.50;;;;;;4915611;29;20094;-77
2023/12/09 05:17:00;;;;;;;11.95;7.55;;;5.10;71.50;;;;;;4947816;29;20661;-77
2023/12/09 05:19:26;;;;;;;11.13;7.72;;;5.10;71.80;;;;;;4938137;29;20418;-77
2023/12/09 05:21:52;;;;;;;11.05;7.13;;;5.10;71.70;;;;;;4947648;29;20039;-77
2023/12/09 05:24:18;;;;;;;10.73;7.38;;;5.10;71.80;;;;;;4945796;29;20046;-77
2023/12/09 05:26:44;;;;;;;10.80;7.88;;;5.20;71.80;;;;;;4938196;29;20162;-77
2023/12/09 05:29:10;;;;;;;11.52;7.53;;;5.20;71.80;;;;;;4944122;29;20040;-77
2023/12/09 05:31:36;;;;;;;10.68;6.82;;;5.10;71.70;;;;;;4938043;29;20036;-76
2023/12/09 05:34:02;;;;;;;11.35;7.57;;;5.10;71.90;;;;;;4914674;29;20780;-77
2023/12/09 05:36:28;;;;;;;10.75;7.10;;;5.20;71.90;;;;;;4950369;29;20031;-78
2023/12/09 05:38:54;;;;;;;10.27;6.95;;;5.10;71.80;;;;;;4932661;29;20043;-77
2023/12/09 05:41:20;;;;;;;13.85;7.28;;;5.10;71.90;;;;;;4930966;29;20542;-77
2023/12/09 05:43:46;;;;;;;12.18;7.57;;;5.10;72.00;;;;;;4923299;29;20035;-77
2023/12/09 05:46:19;;;;;;;12.15;7.60;;;5.10;72.00;;;;;;4947262;29;20042;-77
2023/12/09 05:48:46;;;;;;;9.98;6.60;;;5.10;71.90;;;;;;4929995;29;20043;-77
2023/12/09 05:51:12;;;;;;;16.63;7.82;;;5.10;72.00;;;;;;4923054;29;20031;-78
2023/12/09 05:53:39;;;;;;;10.73;7.45;;;5.20;72.00;;;;;;4948065;29;20482;-77
2023/12/09 05:56:09;;;;;;;11.45;7.43;;;5.20;72.10;;;;;;4946079;29;20031;-76
2023/12/09 05:58:35;;;;;;;11.40;7.32;;;5.10;72.40;;;;;;4928204;29;20043;-76
2023/12/09 06:01:02;;;;;;;13.10;7.32;;;5.20;72.30;;;;;;4946950;29;20390;-76
2023/12/09 06:03:28;;;;;;;10.93;6.70;;;5.20;72.50;;;;;;4946066;29;20577;-77
2023/12/09 06:05:55;;;;;;;11.88;6.57;;;5.10;72.40;;;;;;4947701;29;20082;-77
2023/12/09 06:08:21;;;;;;;12.35;8.00;;;5.10;72.40;;;;;;4945498;29;20526;-77
2023/12/09 06:10:47;;;;;;;12.43;8.00;;;5.10;72.50;;;;;;4950861;28;20047;-78
2023/12/09 06:13:13;;;;;;;13.00;7.90;;;5.10;72.30;;;;;;4958417;29;20039;-79
2023/12/09 06:15:39;;;;;;;10.82;7.38;;;5.10;72.40;;;;;;4934180;29;20087;-79
2023/12/09 06:18:05;;;;;;;9.18;6.72;;;5.20;72.40;;;;;;4951667;29;20035;-77
2023/12/09 06:20:31;;;;;;;11.38;7.07;;;5.10;72.40;;;;;;4948819;29;20027;-75
2023/12/09 06:22:57;;;;;;;12.02;7.13;;;5.10;72.30;;;;;;4949867;29;20035;-75
2023/12/09 06:25:23;;;;;;;10.57;8.00;;;5.10;72.10;;;;;;4951576;29;20972;-75
2023/12/09 06:27:49;;;;;;;10.18;6.88;;;5.10;71.90;;;;;;4952786;29;20108;-76
2023/12/09 06:30:16;;;;;;;12.38;7.45;;;5.10;71.40;;;;;;4962916;29;20058;-75
2023/12/09 06:32:43;;;;;;;13.05;7.63;;;5.10;71.00;;;;;;4954117;29;20029;-76
2023/12/09 06:35:09;;;;;;;10.90;7.15;;;5.10;70.80;;;;;;4930402;29;20031;-78
2023/12/09 06:37:35;;;;;;;12.35;7.60;;;5.10;70.70;;;;;;4949000;29;20031;-76
2023/12/09 06:40:01;;;;;;;11.02;7.03;;;5.10;70.70;;;;;;4950812;29;20061;-77
2023/12/09 06:42:27;;;;;;;12.60;7.05;;;5.10;70.60;;;;;;4950485;29;20047;-77
2023/12/09 06:44:53;;;;;;;15.90;7.13;;;5.10;70.50;;;;;;4952540;29;20114;-78
2023/12/09 06:47:19;;;;;;;11.55;6.97;;;5.10;70.50;;;;;;4946304;29;20062;-76
2023/12/09 06:49:45;;;;;;;9.75;6.88;;;5.10;70.40;;;;;;4947494;29;20142;-76
2023/12/09 06:52:11;;;;;;;10.50;7.30;;;5.10;70.40;;;;;;4946687;29;20506;-76
2023/12/09 06:54:38;;;;;;;11.82;7.18;;;5.10;70.40;;;;;;4947182;29;20039;-77
2023/12/09 06:57:04;;;;;;;10.07;6.70;;;5.10;70.30;;;;;;4945856;29;20039;-77
2023/12/09 06:59:30;;;;;;;11.45;6.70;;;5.10;70.10;;;;;;4947456;29;20113;-78
2023/12/09 07:01:57;;;;;;;10.45;7.15;;;5.10;70.00;;;;;;4939123;29;20126;-77
2023/12/09 07:04:23;;;;;;;9.20;6.72;;;5.10;70.00;;;;;;4947734;29;20187;-79
2023/12/09 07:06:49;;;;;;;10.27;6.88;;;5.10;69.80;;;;;;4946753;29;20035;-77
2023/12/09 07:09:15;;;;;;;10.52;7.35;;;5.10;69.60;;;;;;4948142;29;20039;-76
2023/12/09 07:11:41;;;;;;;12.30;7.00;;;5.10;69.60;;;;;;4946787;29;20820;-78
2023/12/09 07:14:07;;;;;;;10.38;7.13;;;5.10;69.60;;;;;;4936108;29;20050;-78
2023/12/09 07:16:35;;;;;;;10.77;7.47;;;5.10;69.70;;;;;;4946472;29;20098;-77
2023/12/09 07:19:01;;;;;;;11.90;7.57;;;5.10;69.50;;;;;;4945017;29;20653;-79
2023/12/09 07:21:27;;;;;;;11.32;7.18;;;5.10;69.50;;;;;;4946763;29;20110;-78
2023/12/09 07:23:53;;;;;;;11.07;7.18;;;5.10;69.40;;;;;;4947282;28;20094;-81
2023/12/09 07:26:19;;;;;;;11.70;6.70;;;5.10;69.40;;;;;;4947920;29;20617;-77
2023/12/09 07:28:45;;;;;;;10.30;6.85;;;5.20;69.40;;;;;;4943469;29;20074;-81
2023/12/09 07:31:11;;;;;;;10.60;6.68;;;5.20;69.40;;;;;;4930608;29;20143;-78
2023/12/09 07:33:38;;;;;;;10.07;6.57;;;5.20;69.40;;;;;;4931172;29;20031;-79
2023/12/09 07:36:04;;;;;;;10.68;6.57;;;5.20;69.30;;;;;;4946653;29;21588;-80
2023/12/09 07:38:30;;;;;;;12.07;7.13;;;5.20;69.20;;;;;;4948219;29;20053;-80
2023/12/09 07:40:57;;;;;;;11.60;6.78;;;5.20;69.00;;;;;;4931195;29;20039;-81
2023/12/09 07:43:23;;;;;;;9.80;6.70;;;5.20;69.20;;;;;;4916362;29;20035;-81
2023/12/09 07:45:49;;;;;;;11.00;7.10;;;5.20;69.30;;;;;;4948627;29;20032;-79
2023/12/09 07:48:15;;;;;;;9.88;6.65;;;5.20;69.30;;;;;;4948278;29;20034;-79
2023/12/09 07:50:41;;;;;;;10.65;6.95;;;5.20;69.30;;;;;;4947482;29;20031;-78
2023/12/09 07:53:07;;;;;;;10.25;6.70;;;5.20;69.50;;;;;;4937433;29;20043;-79
2023/12/09 07:55:33;;;;;;;11.10;6.40;;;5.20;69.60;;;;;;4949449;29;20035;-77
2023/12/09 07:57:59;;;;;;;10.40;6.75;;;5.20;69.70;;;;;;4955391;29;20510;-78
2023/12/09 08:00:28;;;;;;;10.60;6.22;;;5.20;69.70;;;;;;4935018;29;20499;-78
2023/12/09 08:02:57;;;;;;;11.18;7.10;;;5.20;69.60;;;;;;4945135;29;20031;-78
2023/12/09 08:05:26;;;;;;;11.02;6.95;;;5.20;69.60;;;;;;4928792;29;20172;-78
2023/12/09 08:07:52;;;;;;;11.18;6.97;;;5.30;69.60;;;;;;4941311;29;20035;-78
2023/12/09 08:10:18;;;;;;;10.63;6.82;;;5.20;69.50;;;;;;4943708;28;20042;-79
2023/12/09 08:12:44;;;;;;;10.63;7.15;;;5.30;69.50;;;;;;4946079;28;20538;-79
2023/12/09 08:15:11;;;;;;;11.85;6.80;;;5.30;69.40;;;;;;4943963;29;20039;-79
2023/12/09 08:17:37;;;;;;;10.00;6.40;;;5.30;69.30;;;;;;4927060;28;20078;-79
2023/12/09 08:20:06;;;;;;;10.57;6.85;;;5.30;69.20;;;;;;4942712;28;20035;-79
2023/12/09 08:22:33;;;;;;;11.00;6.95;;;5.20;68.90;;;;;;4942324;29;20910;-79
2023/12/09 08:24:59;;;;;;;11.20;7.43;;;5.20;68.90;;;;;;4941881;29;20047;-79
2023/12/09 08:27:25;;;;;;;9.93;6.65;;;5.20;68.80;;;;;;4940503;28;20229;-79
2023/12/09 08:29:51;;;;;;;14.02;6.97;;;5.30;68.90;;;;;;4944263;28;20784;-78
2023/12/09 08:32:17;;;;;;;12.93;7.13;;;5.20;68.90;;;;;;4946317;28;20793;-78
2023/12/09 08:34:43;;;;;;;11.93;7.38;;;5.20;68.80;;;;;;4944989;28;20050;-80
2023/12/09 08:37:10;;;;;;;10.63;6.72;;;5.20;69.00;;;;;;4908787;29;20038;-80
2023/12/09 08:39:38;;;;;;;10.80;6.75;;;5.30;69.20;;;;;;4944704;28;20047;-84
2023/12/09 08:42:04;;;;;;;10.57;6.63;;;5.20;69.10;;;;;;4912874;29;20063;-80
2023/12/09 08:44:30;;;;;;;11.30;6.93;;;5.20;69.30;;;;;;4945399;28;20031;-81
2023/12/09 08:46:57;;;;;;;12.60;6.93;;;5.20;69.30;;;;;;4944642;28;20075;-86
2023/12/09 08:49:24;;;;;;;12.02;6.35;;;5.20;69.40;;;;;;4932012;28;20038;-78
2023/12/09 08:51:50;;;;;;;12.18;6.85;;;5.20;69.60;;;;;;4949482;29;20095;-80
2023/12/09 08:54:16;;;;;;;11.20;6.53;;;5.20;69.80;;;;;;4952056;29;20039;-83
2023/12/09 08:56:42;;;;;;;9.52;6.30;;;5.30;70.70;;;;;;4901153;29;20027;-85
2023/12/09 08:59:09;;;;;;;11.60;6.78;;;5.30;71.10;;;;;;4932482;29;20047;-85
2023/12/09 09:01:36;;;;;;;10.02;6.10;;;5.30;71.40;;;;;;4923020;29;20043;-84
2023/12/09 09:04:02;;;;;;;9.63;6.57;;;5.30;71.50;;;;;;4916725;29;20031;-86
2023/12/09 09:06:29;;;;;;;12.05;5.93;;;5.40;71.80;;;;;;4901630;29;20050;-86
2023/12/09 09:08:55;;;;;;;10.23;5.90;;;5.30;72.60;;;;;;4898561;29;20870;-80
2023/12/09 09:11:21;;;;;;;8.18;4.88;;;5.60;79.60;;;;;;4921452;29;20151;-83
2023/12/09 09:13:48;;;;;;;8.50;5.45;;;5.70;80.10;;;;;;4917570;29;20585;-82
2023/12/09 09:16:14;;;;;;;9.55;5.60;;;5.80;80.10;;;;;;4947138;29;20418;-86
2023/12/09 09:18:42;;;;;;;7.53;5.15;;;6.00;80.50;;;;;;4906974;29;20058;-80
2023/12/09 09:21:09;;;;;;;7.10;5.10;;;6.10;80.90;;;;;;4946269;29;20038;-81
2023/12/09 09:23:35;;;;;;;9.32;5.60;;;6.30;80.90;;;;;;4948883;28;20039;-82
2023/12/09 09:26:02;;;;;;;11.02;6.40;;;6.50;81.50;;;;;;4931382;29;20611;-81
2023/12/09 09:28:28;;;;;;;13.82;6.95;;;6.50;78.00;;;;;;4916985;29;20486;-81
2023/12/09 09:30:54;;;;;;;14.48;7.95;;;6.50;73.90;;;;;;4930023;29;20039;-81
2023/12/09 09:33:20;;;;;;;12.18;7.65;;;6.50;71.80;;;;;;4946014;28;20036;-79
2023/12/09 09:35:48;;;;;;;13.15;8.10;;;6.50;70.10;;;;;;4938327;29;20312;-81
2023/12/09 09:38:14;;;;;;;13.27;7.55;;;6.40;68.60;;;;;;4946871;29;20043;-80
2023/12/09 09:40:41;;;;;;;14.13;7.93;;;6.30;67.50;;;;;;4923206;29;20035;-81
2023/12/09 09:43:20;;;;;;;16.63;8.50;;;6.30;66.70;;;;;;4913178;29;20035;-81
2023/12/09 09:45:48;;;;;;;13.90;7.82;;;6.20;65.90;;;;;;4929356;29;20068;-81
2023/12/09 09:48:16;;;;;;;13.50;7.57;;;6.20;65.70;;;;;;4942234;29;20394;-79
2023/12/09 09:50:49;;;;;;;15.10;8.38;;;6.10;65.10;;;;;;4933019;29;20031;-88
2023/12/09 09:53:24;;;;;;;11.60;6.93;;;6.20;67.20;;;;;;4936844;28;20035;-77
2023/12/09 09:55:51;;;;;;;12.45;6.78;;;6.20;71.10;;;;;;4949045;28;20031;-77
2023/12/09 09:58:18;;;;;;;11.15;6.40;;;6.30;71.10;;;;;;4940121;28;20047;-78
2023/12/09 10:00:44;;;;;;;13.38;6.07;;;6.30;70.70;;;;;;4932804;29;20046;-78
2023/12/09 10:03:10;;;;;;;12.90;6.90;;;6.30;70.00;;;;;;4947999;29;20066;-79
2023/12/09 10:05:37;;;;;;;9.90;6.78;;;6.20;69.70;;;;;;4950335;29;20034;-78
2023/12/09 10:08:03;;;;;;;10.18;6.65;;;6.20;69.50;;;;;;4932456;29;20043;-79
2023/12/09 10:10:32;;;;;;;9.70;6.45;;;6.20;69.30;;;;;;4948539;28;20028;-78
2023/12/09 10:12:58;;;;;;;10.98;7.20;;;6.20;68.90;;;;;;4949216;29;20090;-80
2023/12/09 10:15:25;;;;;;;12.13;6.95;;;6.20;68.50;;;;;;4950171;29;20035;-79
2023/12/09 10:17:51;;;;;;;12.90;7.18;;;6.20;68.30;;;;;;4955731;29;20106;-79
2023/12/09 10:20:17;;;;;;;11.50;6.97;;;6.20;68.10;;;;;;4970530;28;20049;-78
2023/12/09 10:22:43;;;;;;;10.85;6.63;;;6.20;68.00;;;;;;4954850;28;20035;-79
2023/12/09 10:25:09;;;;;;;9.57;6.43;;;6.20;67.80;;;;;;4938897;29;20036;-78
2023/12/09 10:27:35;;;;;;;14.02;7.60;;;6.20;67.70;;;;;;4928421;29;20043;-79
2023/12/09 10:30:01;;;;;;;11.00;6.45;;;6.10;67.40;;;;;;4950654;28;20042;-79
2023/12/09 10:32:27;;;;;;;20.80;6.15;;;6.10;67.20;;;;;;4949881;29;20036;-81
2023/12/09 10:34:54;;;;;;;10.13;6.38;;;6.10;67.10;;;;;;4946674;29;20086;-79
2023/12/09 10:37:21;;;;;;;9.63;6.10;;;6.10;67.10;;;;;;4933025;29;20055;-80
2023/12/09 10:39:51;;;;;;;13.05;7.03;;;6.10;67.20;;;;;;4945042;28;20040;-79
2023/12/09 10:42:17;;;;;;;10.20;6.68;;;6.10;67.20;;;;;;4953024;28;20043;-78
2023/12/09 10:44:43;;;;;;;10.45;7.00;;;6.00;66.90;;;;;;4950372;29;20058;-79
2023/12/09 10:47:09;;;;;;;12.43;6.78;;;6.00;66.20;;;;;;4950861;29;20145;-80
2023/12/09 10:49:36;;;;;;;11.85;6.85;;;6.00;65.80;;;;;;4949392;29;20130;-80
2023/12/09 10:52:03;;;;;;;11.02;7.07;;;6.00;65.60;;;;;;4936110;29;20039;-80
2023/12/09 10:54:29;;;;;;;11.18;7.05;;;5.90;65.30;;;;;;4942779;29;20047;-81
2023/12/09 10:56:55;;;;;;;12.20;7.35;;;5.90;64.90;;;;;;4950173;28;20595;-82
2023/12/09 10:59:21;;;;;;;12.38;6.50;;;5.90;64.70;;;;;;4936862;29;20085;-83
2023/12/09 11:01:48;;;;;;;11.93;7.10;;;5.90;64.60;;;;;;4912838;28;20039;-82
2023/12/09 11:04:14;;;;;;;11.75;7.22;;;5.80;64.80;;;;;;4932886;29;20501;-78
2023/12/09 11:06:42;;;;;;;13.02;7.30;;;5.80;65.20;;;;;;4947836;28;20066;-79
2023/12/09 11:09:10;;;;;;;10.70;5.97;;;5.80;65.60;;;;;;4949031;29;20047;-80
2023/12/09 11:11:36;;;;;;;12.35;7.28;;;5.80;66.10;;;;;;4933455;29;20059;-79
2023/12/09 11:14:08;;;;;;;13.32;6.22;;;5.80;66.20;;;;;;4949957;29;20557;-79
2023/12/09 11:16:34;;;;;;;11.60;7.13;;;5.70;66.00;;;;;;4948516;28;20043;-81
2023/12/09 11:19:00;;;;;;;11.05;7.05;;;5.70;65.80;;;;;;4923458;29;20046;-78
2023/12/09 11:21:28;;;;;;;11.52;6.63;;;5.70;65.60;;;;;;4947027;29;21031;-78
2023/12/09 11:23:56;;;;;;;10.45;6.50;;;5.70;65.40;;;;;;4949521;29;20108;-75
2023/12/09 11:26:45;;;;;;;9.13;6.63;;;5.60;65.30;;;;;;4947772;28;20039;-78
2023/12/09 11:29:15;;;;;;;13.70;6.70;;;5.60;65.10;;;;;;4944760;28;20070;-77
2023/12/09 11:31:44;;;;;;;11.60;6.88;;;5.60;64.80;;;;;;4948008;29;20679;-77
2023/12/09 11:34:21;;;;;;;10.95;6.10;;;5.60;64.50;;;;;;4948364;28;20063;-75
2023/12/09 11:36:49;;;;;;;9.43;6.40;;;5.60;64.10;;;;;;4947540;29;20466;-77
2023/12/09 11:39:17;;;;;;;11.07;6.80;;;5.60;63.90;;;;;;4924814;29;20043;-75
2023/12/09 11:41:44;;;;;;;10.30;6.30;;;5.50;63.60;;;;;;4944024;28;20491;-76
2023/12/09 11:44:11;;;;;;;11.80;6.82;;;5.50;63.30;;;;;;4944713;28;20067;-75
2023/12/09 11:46:38;;;;;;;10.50;6.45;;;5.50;63.10;;;;;;4930008;29;20130;-78
2023/12/09 11:49:05;;;;;;;10.35;6.43;;;5.50;62.80;;;;;;4928782;29;20050;-77
2023/12/09 11:51:34;;;;;;;9.25;6.05;;;5.40;62.60;;;;;;4947596;29;20062;-77
2023/12/09 11:54:03;;;;;;;10.57;6.88;;;5.40;62.60;;;;;;4949137;29;20038;-78
2023/12/09 11:56:29;;;;;;;7.97;6.07;;;5.40;62.60;;;;;;4949019;29;20058;-79
2023/12/09 11:58:56;;;;;;;10.82;6.35;;;5.30;62.80;;;;;;4949526;29;20039;-77
2023/12/09 12:01:23;;;;;;;10.27;5.95;;;5.30;63.20;;;;;;4949190;29;20032;-78
2023/12/09 12:03:49;;;;;;;9.25;6.18;;;5.30;63.60;;;;;;4932554;29;20389;-78
2023/12/09 12:06:17;;;;;;;9.80;6.65;;;5.30;63.90;;;;;;4947005;29;20778;-81
2023/12/09 12:08:43;;;;;;;12.18;6.68;;;5.30;64.90;;;;;;4939639;28;20394;-77
2023/12/09 12:11:10;;;;;;;8.50;5.78;;;5.30;65.20;;;;;;4943676;28;20059;-77
2023/12/09 12:13:37;;;;;;;11.50;6.68;;;5.20;64.60;;;;;;4948323;29;20043;-80
2023/12/09 12:16:03;;;;;;;11.70;6.80;;;5.20;63.70;;;;;;4946516;29;20043;-77
2023/12/09 12:18:29;;;;;;;10.15;6.40;;;5.10;63.40;;;;;;4946674;29;20045;-79
2023/12/09 12:20:56;;;;;;;11.75;6.40;;;5.10;62.90;;;;;;4935781;29;20023;-78
2023/12/09 12:23:23;;;;;;;11.07;6.55;;;5.10;62.70;;;;;;4921485;29;20036;-76
2023/12/09 12:25:52;;;;;;;15.65;7.03;;;5.00;62.40;;;;;;4926589;29;20031;-77
2023/12/09 12:28:18;;;;;;;11.00;6.50;;;5.00;62.60;;;;;;4923302;29;20101;-78
2023/12/09 12:30:44;;;;;;;12.48;6.60;;;4.90;61.80;;;;;;4923749;29;20363;-78
2023/12/09 12:33:11;;;;;;;10.65;6.75;;;4.90;61.60;;;;;;4923806;29;20072;-79
2023/12/09 12:35:37;;;;;;;10.43;6.40;;;4.90;61.80;;;;;;4910993;29;20032;-78
2023/12/09 12:38:04;;;;;;;12.30;6.72;;;4.90;62.40;;;;;;4921140;29;20036;-78
2023/12/09 12:40:30;;;;;;;11.88;7.22;;;4.80;62.90;;;;;;4922935;29;20406;-80
2023/12/09 12:42:56;;;;;;;10.45;6.45;;;4.80;63.30;;;;;;4909763;29;20036;-79
2023/12/09 12:45:25;;;;;;;10.65;6.40;;;4.80;63.80;;;;;;4896277;29;20514;-80